sensor_id;sensor_type;location;lat;lon;timestamp;pressure;altitude;pressure_sealevel;temperature;humidity
23589;BME280;11972;48.078;11.876;2023-02-17T00:01:53;96233.97;;;7.25;100.00
23589;BME280;11972;48.078;11.876;2023-02-17T00:05:53;96238.09;;;7.28;100.00
23589;BME280;11972;48.078;11.876;2023-02-17T00:09:53;96229.25;;;7.29;100.00
23589;BME280;11972;48.078;11.876;2023-02-17T00:13:54;96233.66;;;7.28;100.00
23589;BME280;11972;48.078;11.876;2023-02-17T00:17:54;96232.72;;;7.29;100.00
23589;BME280;11972;48.078;11.876;2023-02-17T00:21:56;96232.28;;;7.34;100.00
23589;BME280;11972;48.078;11.876;2023-02-17T00:25:57;96231.13;;;7.36;100.00
23589;BME280;11972;48.078;11.876;2023-02-17T00:29:57;96234.47;;;7.38;100.00
23589;BME280;11972;48.078;11.876;2023-02-17T00:33:58;96235.81;;;7.42;100.00
23589;BME280;11972;48.078;11.876;2023-02-17T00:37:58;96233.03;;;7.44;100.00
23589;BME280;11972;48.078;11.876;2023-02-17T00:41:59;96225.84;;;7.46;100.00
23589;BME280;11972;48.078;11.876;2023-02-17T00:45:59;96222.09;;;7.49;100.00
23589;BME280;11972;48.078;11.876;2023-02-17T00:50:03;96221.97;;;7.50;100.00
23589;BME280;11972;48.078;11.876;2023-02-17T00:54:04;96223.44;;;7.53;100.00
23589;BME280;11972;48.078;11.876;2023-02-17T00:58:04;96218.88;;;7.55;100.00
23589;BME280;11972;48.078;11.876;2023-02-17T01:02:04;96219.88;;;7.54;100.00
23589;BME280;11972;48.078;11.876;2023-02-17T01:06:10;96216.41;;;7.53;100.00
23589;BME280;11972;48.078;11.876;2023-02-17T01:10:16;96207.09;;;7.59;100.00
23589;BME280;11972;48.078;11.876;2023-02-17T01:14:29;96210.13;;;7.64;100.00
23589;BME280;11972;48.078;11.876;2023-02-17T01:18:29;96205.56;;;7.66;100.00
23589;BME280;11972;48.078;11.876;2023-02-17T01:22:29;96207.72;;;7.70;100.00
23589;BME280;11972;48.078;11.876;2023-02-17T01:26:31;96205.63;;;7.74;100.00
23589;BME280;11972;48.078;11.876;2023-02-17T01:30:32;96201.03;;;7.76;100.00
23589;BME280;11972;48.078;11.876;2023-02-17T01:34:33;96205.84;;;7.81;100.00
23589;BME280;11972;48.078;11.876;2023-02-17T01:38:35;96200.75;;;7.79;100.00
23589;BME280;11972;48.078;11.876;2023-02-17T01:42:35;96196.78;;;7.75;100.00
23589;BME280;11972;48.078;11.876;2023-02-17T01:46:37;96192.16;;;7.59;100.00
23589;BME280;11972;48.078;11.876;2023-02-17T01:50:43;96190.44;;;7.40;100.00
23589;BME280;11972;48.078;11.876;2023-02-17T01:54:52;96189.25;;;7.35;100.00
23589;BME280;11972;48.078;11.876;2023-02-17T01:59:02;96183.53;;;7.39;100.00
23589;BME280;11972;48.078;11.876;2023-02-17T02:03:07;96182.25;;;7.53;100.00
23589;BME280;11972;48.078;11.876;2023-02-17T02:07:28;96182.34;;;7.61;100.00
23589;BME280;11972;48.078;11.876;2023-02-17T02:11:29;96185.91;;;7.60;100.00
23589;BME280;11972;48.078;11.876;2023-02-17T02:15:43;96184.34;;;7.50;100.00
23589;BME280;11972;48.078;11.876;2023-02-17T02:24:57;96184.44;;;7.58;100.00
23589;BME280;11972;48.078;11.876;2023-02-17T02:29:29;96185.47;;;7.65;100.00
23589;BME280;11972;48.078;11.876;2023-02-17T02:33:45;96195.25;;;7.72;100.00
23589;BME280;11972;48.078;11.876;2023-02-17T02:37:55;96194.50;;;7.80;100.00
23589;BME280;11972;48.078;11.876;2023-02-17T02:42:03;96196.84;;;7.83;100.00
23589;BME280;11972;48.078;11.876;2023-02-17T02:46:04;96197.53;;;7.85;100.00
23589;BME280;11972;48.078;11.876;2023-02-17T02:50:05;96192.41;;;7.84;100.00
23589;BME280;11972;48.078;11.876;2023-02-17T02:54:20;96187.16;;;7.84;100.00
23589;BME280;11972;48.078;11.876;2023-02-17T03:02:31;96179.09;;;7.85;100.00
23589;BME280;11972;48.078;11.876;2023-02-17T03:06:43;96187.69;;;7.87;100.00
23589;BME280;11972;48.078;11.876;2023-02-17T03:10:52;96173.25;;;7.91;100.00
23589;BME280;11972;48.078;11.876;2023-02-17T03:15:01;96174.63;;;7.95;100.00
23589;BME280;11972;48.078;11.876;2023-02-17T03:19:03;96171.28;;;7.93;100.00
23589;BME280;11972;48.078;11.876;2023-02-17T03:23:04;96173.25;;;7.91;100.00
23589;BME280;11972;48.078;11.876;2023-02-17T03:27:04;96166.94;;;7.84;100.00
23589;BME280;11972;48.078;11.876;2023-02-17T03:31:05;96167.22;;;7.81;100.00
23589;BME280;11972;48.078;11.876;2023-02-17T03:35:05;96161.97;;;7.81;100.00
23589;BME280;11972;48.078;11.876;2023-02-17T03:39:06;96166.13;;;7.84;100.00
23589;BME280;11972;48.078;11.876;2023-02-17T03:43:06;96161.16;;;7.81;100.00
23589;BME280;11972;48.078;11.876;2023-02-17T03:47:07;96162.13;;;7.80;100.00
23589;BME280;11972;48.078;11.876;2023-02-17T03:51:11;96155.06;;;7.80;100.00
23589;BME280;11972;48.078;11.876;2023-02-17T03:55:12;96150.78;;;7.79;100.00
23589;BME280;11972;48.078;11.876;2023-02-17T03:59:12;96158.97;;;7.76;100.00
23589;BME280;11972;48.078;11.876;2023-02-17T04:03:12;96148.75;;;7.73;100.00
23589;BME280;11972;48.078;11.876;2023-02-17T04:07:13;96150.78;;;7.79;100.00
23589;BME280;11972;48.078;11.876;2023-02-17T04:11:13;96149.06;;;7.88;100.00
23589;BME280;11972;48.078;11.876;2023-02-17T04:15:13;96154.22;;;7.97;100.00
23589;BME280;11972;48.078;11.876;2023-02-17T04:19:14;96153.03;;;8.10;100.00
23589;BME280;11972;48.078;11.876;2023-02-17T04:23:15;96147.31;;;8.14;100.00
23589;BME280;11972;48.078;11.876;2023-02-17T04:27:16;96147.63;;;8.11;100.00
23589;BME280;11972;48.078;11.876;2023-02-17T04:31:16;96139.56;;;8.13;100.00
23589;BME280;11972;48.078;11.876;2023-02-17T04:35:17;96140.34;;;8.23;100.00
23589;BME280;11972;48.078;11.876;2023-02-17T04:39:18;96141.06;;;8.33;100.00
23589;BME280;11972;48.078;11.876;2023-02-17T04:43:18;96139.19;;;8.43;100.00
23589;BME280;11972;48.078;11.876;2023-02-17T04:47:18;96147.47;;;8.49;100.00
23589;BME280;11972;48.078;11.876;2023-02-17T04:51:19;96137.28;;;8.54;100.00
23589;BME280;11972;48.078;11.876;2023-02-17T04:55:19;96131.34;;;8.52;100.00
23589;BME280;11972;48.078;11.876;2023-02-17T04:59:20;96131.66;;;8.49;100.00
23589;BME280;11972;48.078;11.876;2023-02-17T05:03:20;96134.28;;;8.49;100.00
23589;BME280;11972;48.078;11.876;2023-02-17T05:07:21;96129.69;;;8.51;100.00
23589;BME280;11972;48.078;11.876;2023-02-17T05:11:21;96121.78;;;8.51;100.00
23589;BME280;11972;48.078;11.876;2023-02-17T05:15:21;96115.22;;;8.55;100.00
23589;BME280;11972;48.078;11.876;2023-02-17T05:19:22;96113.41;;;8.55;100.00
23589;BME280;11972;48.078;11.876;2023-02-17T05:23:22;96106.50;;;8.54;100.00
23589;BME280;11972;48.078;11.876;2023-02-17T05:27:23;96109.31;;;8.53;100.00
23589;BME280;11972;48.078;11.876;2023-02-17T05:31:23;96106.16;;;8.49;100.00
23589;BME280;11972;48.078;11.876;2023-02-17T05:35:23;96093.47;;;8.44;100.00
23589;BME280;11972;48.078;11.876;2023-02-17T05:39:24;96094.75;;;8.40;100.00
23589;BME280;11972;48.078;11.876;2023-02-17T05:43:24;96108.91;;;8.39;100.00
23589;BME280;11972;48.078;11.876;2023-02-17T05:47:25;96118.81;;;8.45;100.00
23589;BME280;11972;48.078;11.876;2023-02-17T05:51:25;96121.47;;;8.54;100.00
23589;BME280;11972;48.078;11.876;2023-02-17T05:55:25;96122.53;;;8.61;100.00
23589;BME280;11972;48.078;11.876;2023-02-17T05:59:26;96117.97;;;8.71;100.00
23589;BME280;11972;48.078;11.876;2023-02-17T06:03:26;96114.19;;;8.74;100.00
23589;BME280;11972;48.078;11.876;2023-02-17T06:07:26;96125.91;;;8.79;100.00
23589;BME280;11972;48.078;11.876;2023-02-17T06:11:27;96130.06;;;8.82;100.00
23589;BME280;11972;48.078;11.876;2023-02-17T06:15:27;96125.91;;;8.79;100.00
23589;BME280;11972;48.078;11.876;2023-02-17T06:19:28;96133.22;;;8.85;100.00
23589;BME280;11972;48.078;11.876;2023-02-17T06:23:29;96119.59;;;8.98;100.00
23589;BME280;11972;48.078;11.876;2023-02-17T06:27:30;96120.16;;;9.10;100.00
23589;BME280;11972;48.078;11.876;2023-02-17T06:31:31;96119.53;;;9.24;100.00
23589;BME280;11972;48.078;11.876;2023-02-17T06:35:32;96117.94;;;9.39;100.00
23589;BME280;11972;48.078;11.876;2023-02-17T06:39:32;96126.38;;;9.51;100.00
23589;BME280;11972;48.078;11.876;2023-02-17T06:43:33;96128.22;;;9.59;100.00
23589;BME280;11972;48.078;11.876;2023-02-17T06:47:34;96136.16;;;9.67;100.00
23589;BME280;11972;48.078;11.876;2023-02-17T06:51:34;96137.63;;;9.69;100.00
23589;BME280;11972;48.078;11.876;2023-02-17T06:55:35;96148.34;;;9.68;100.00
23589;BME280;11972;48.078;11.876;2023-02-17T06:59:37;96141.69;;;9.39;100.00
23589;BME280;11972;48.078;11.876;2023-02-17T07:03:37;96138.28;;;9.21;100.00
23589;BME280;11972;48.078;11.876;2023-02-17T07:07:38;96131.75;;;8.91;100.00
23589;BME280;11972;48.078;11.876;2023-02-17T07:11:39;96124.91;;;8.80;100.00
23589;BME280;11972;48.078;11.876;2023-02-17T07:15:39;96121.06;;;9.01;100.00
23589;BME280;11972;48.078;11.876;2023-02-17T07:19:39;96143.22;;;9.16;100.00
23589;BME280;11972;48.078;11.876;2023-02-17T07:23:40;96135.06;;;9.35;100.00
23589;BME280;11972;48.078;11.876;2023-02-17T07:27:40;96125.84;;;9.39;100.00
23589;BME280;11972;48.078;11.876;2023-02-17T07:31:41;96135.41;;;9.40;100.00
23589;BME280;11972;48.078;11.876;2023-02-17T07:35:42;96128.19;;;9.42;100.00
23589;BME280;11972;48.078;11.876;2023-02-17T07:39:45;96122.00;;;9.84;100.00
23589;BME280;11972;48.078;11.876;2023-02-17T07:43:46;96137.41;;;10.30;100.00
23589;BME280;11972;48.078;11.876;2023-02-17T07:47:47;96128.97;;;10.51;100.00
23589;BME280;11972;48.078;11.876;2023-02-17T07:51:47;96124.81;;;10.73;100.00
23589;BME280;11972;48.078;11.876;2023-02-17T07:55:48;96132.03;;;10.95;100.00
23589;BME280;11972;48.078;11.876;2023-02-17T07:59:48;96126.53;;;11.05;100.00
23589;BME280;11972;48.078;11.876;2023-02-17T08:03:49;96136.78;;;11.08;100.00
23589;BME280;11972;48.078;11.876;2023-02-17T08:07:50;96136.75;;;11.16;100.00
23589;BME280;11972;48.078;11.876;2023-02-17T08:12:18;96144.31;;;11.19;100.00
23589;BME280;11972;48.078;11.876;2023-02-17T08:16:37;96150.59;;;11.26;100.00
23589;BME280;11972;48.078;11.876;2023-02-17T08:20:38;96154.84;;;11.35;100.00
23589;BME280;11972;48.078;11.876;2023-02-17T08:24:38;96147.34;;;11.47;100.00
23589;BME280;11972;48.078;11.876;2023-02-17T08:28:38;96147.13;;;11.65;100.00
23589;BME280;11972;48.078;11.876;2023-02-17T08:32:39;96146.03;;;11.82;100.00
23589;BME280;11972;48.078;11.876;2023-02-17T08:36:39;96163.81;;;11.97;100.00
23589;BME280;11972;48.078;11.876;2023-02-17T08:40:40;96134.38;;;12.23;100.00
23589;BME280;11972;48.078;11.876;2023-02-17T08:44:40;96154.19;;;12.50;100.00
23589;BME280;11972;48.078;11.876;2023-02-17T08:48:41;96148.59;;;12.45;100.00
23589;BME280;11972;48.078;11.876;2023-02-17T08:52:42;96147.50;;;12.39;100.00
23589;BME280;11972;48.078;11.876;2023-02-17T08:56:43;96163.47;;;12.46;100.00
23589;BME280;11972;48.078;11.876;2023-02-17T09:00:43;96147.59;;;12.46;100.00
23589;BME280;11972;48.078;11.876;2023-02-17T09:04:44;96179.97;;;12.56;100.00
23589;BME280;11972;48.078;11.876;2023-02-17T09:08:44;96178.91;;;12.65;100.00
23589;BME280;11972;48.078;11.876;2023-02-17T09:12:45;96167.13;;;12.68;100.00
23589;BME280;11972;48.078;11.876;2023-02-17T09:16:45;96174.00;;;12.54;100.00
23589;BME280;11972;48.078;11.876;2023-02-17T09:20:46;96169.66;;;12.61;100.00
23589;BME280;11972;48.078;11.876;2023-02-17T09:24:46;96168.28;;;12.65;100.00
23589;BME280;11972;48.078;11.876;2023-02-17T09:28:47;96180.72;;;12.64;100.00
23589;BME280;11972;48.078;11.876;2023-02-17T09:32:48;96189.16;;;12.45;100.00
23589;BME280;11972;48.078;11.876;2023-02-17T09:36:48;96183.81;;;12.30;100.00
23589;BME280;11972;48.078;11.876;2023-02-17T09:40:49;96183.75;;;11.76;100.00
23589;BME280;11972;48.078;11.876;2023-02-17T09:44:58;96201.28;;;11.38;100.00
23589;BME280;11972;48.078;11.876;2023-02-17T09:49:04;96194.97;;;11.47;100.00
23589;BME280;11972;48.078;11.876;2023-02-17T09:53:35;96191.41;;;11.71;100.00
23589;BME280;11972;48.078;11.876;2023-02-17T09:57:39;96185.28;;;12.10;100.00
23589;BME280;11972;48.078;11.876;2023-02-17T10:01:41;96188.59;;;12.35;100.00
23589;BME280;11972;48.078;11.876;2023-02-17T10:05:54;96192.63;;;12.46;100.00
23589;BME280;11972;48.078;11.876;2023-02-17T10:10:22;96183.97;;;12.52;100.00
23589;BME280;11972;48.078;11.876;2023-02-17T10:14:28;96181.41;;;12.58;100.00
23589;BME280;11972;48.078;11.876;2023-02-17T10:18:39;96178.53;;;12.68;100.00
23589;BME280;11972;48.078;11.876;2023-02-17T10:22:46;96176.56;;;13.00;100.00
23589;BME280;11972;48.078;11.876;2023-02-17T10:27:00;96168.19;;;13.11;100.00
23589;BME280;11972;48.078;11.876;2023-02-17T10:31:12;96179.84;;;13.39;100.00
23589;BME280;11972;48.078;11.876;2023-02-17T10:35:16;96164.38;;;13.94;100.00
23589;BME280;11972;48.078;11.876;2023-02-17T10:43:33;96196.53;;;13.84;100.00
23589;BME280;11972;48.078;11.876;2023-02-17T10:47:37;96158.81;;;13.74;100.00
23589;BME280;11972;48.078;11.876;2023-02-17T10:51:40;96151.06;;;13.73;100.00
23589;BME280;11972;48.078;11.876;2023-02-17T10:55:52;96182.34;;;13.77;100.00
23589;BME280;11972;48.078;11.876;2023-02-17T10:59:53;96155.91;;;13.69;100.00
23589;BME280;11972;48.078;11.876;2023-02-17T11:04:04;96148.19;;;13.89;100.00
23589;BME280;11972;48.078;11.876;2023-02-17T11:08:27;96141.56;;;14.00;100.00
23589;BME280;11972;48.078;11.876;2023-02-17T11:12:33;96137.41;;;14.12;100.00
23589;BME280;11972;48.078;11.876;2023-02-17T11:16:44;96129.75;;;14.24;100.00
23589;BME280;11972;48.078;11.876;2023-02-17T11:20:46;96149.00;;;14.11;100.00
23589;BME280;11972;48.078;11.876;2023-02-17T11:24:56;96135.47;;;14.06;100.00
23589;BME280;11972;48.078;11.876;2023-02-17T11:29:17;96127.38;;;14.14;100.00
23589;BME280;11972;48.078;11.876;2023-02-17T11:33:33;96139.63;;;13.94;100.00
23589;BME280;11972;48.078;11.876;2023-02-17T11:37:36;96123.16;;;13.62;100.00
23589;BME280;11972;48.078;11.876;2023-02-17T11:41:41;96110.88;;;13.61;100.00
23589;BME280;11972;48.078;11.876;2023-02-17T11:54:42;96129.44;;;14.12;100.00
23589;BME280;11972;48.078;11.876;2023-02-17T11:59:14;96119.50;;;13.99;100.00
23589;BME280;11972;48.078;11.876;2023-02-17T12:07:54;96109.81;;;13.92;100.00
23589;BME280;11972;48.078;11.876;2023-02-17T12:12:15;96102.47;;;13.94;100.00
23589;BME280;11972;48.078;11.876;2023-02-17T12:16:41;96104.19;;;14.01;100.00
23589;BME280;11972;48.078;11.876;2023-02-17T12:25:19;96090.13;;;14.29;100.00
23589;BME280;11972;48.078;11.876;2023-02-17T12:34:01;96084.09;;;14.42;100.00
23589;BME280;11972;48.078;11.876;2023-02-17T12:38:16;96068.19;;;14.70;100.00
23589;BME280;11972;48.078;11.876;2023-02-17T12:42:22;96070.06;;;15.10;100.00
23589;BME280;11972;48.078;11.876;2023-02-17T12:46:44;96074.03;;;14.86;100.00
23589;BME280;11972;48.078;11.876;2023-02-17T12:51:04;96080.81;;;14.39;100.00
23589;BME280;11972;48.078;11.876;2023-02-17T12:59:17;96067.38;;;14.48;100.00
23589;BME280;11972;48.078;11.876;2023-02-17T13:03:19;96064.06;;;14.67;100.00
23589;BME280;11972;48.078;11.876;2023-02-17T13:07:38;96073.09;;;14.73;100.00
23589;BME280;11972;48.078;11.876;2023-02-17T13:11:39;96077.06;;;14.55;100.00
23589;BME280;11972;48.078;11.876;2023-02-17T13:15:44;96078.84;;;14.27;100.00
23589;BME280;11972;48.078;11.876;2023-02-17T13:19:45;96075.88;;;14.15;100.00
23589;BME280;11972;48.078;11.876;2023-02-17T13:28:35;96072.00;;;14.39;100.00
23589;BME280;11972;48.078;11.876;2023-02-17T13:32:37;96066.16;;;14.22;100.00
23589;BME280;11972;48.078;11.876;2023-02-17T13:36:39;96077.38;;;13.96;100.00
23589;BME280;11972;48.078;11.876;2023-02-17T13:40:41;96084.25;;;13.90;100.00
23589;BME280;11972;48.078;11.876;2023-02-17T13:44:43;96075.66;;;13.88;100.00
23589;BME280;11972;48.078;11.876;2023-02-17T13:48:45;96090.31;;;13.84;100.00
23589;BME280;11972;48.078;11.876;2023-02-17T13:52:56;96090.47;;;13.61;100.00
23589;BME280;11972;48.078;11.876;2023-02-17T13:56:57;96074.75;;;13.60;100.00
23589;BME280;11972;48.078;11.876;2023-02-17T14:00:58;96069.81;;;13.78;100.00
23589;BME280;11972;48.078;11.876;2023-02-17T14:04:59;96066.91;;;13.95;100.00
23589;BME280;11972;48.078;11.876;2023-02-17T14:13:21;96066.06;;;13.87;100.00
23589;BME280;11972;48.078;11.876;2023-02-17T14:17:30;96068.94;;;13.71;100.00
23589;BME280;11972;48.078;11.876;2023-02-17T14:21:31;96073.22;;;13.51;100.00
23589;BME280;11972;48.078;11.876;2023-02-17T14:25:35;96097.06;;;13.29;100.00
23589;BME280;11972;48.078;11.876;2023-02-17T14:29:44;96093.59;;;12.47;100.00
23589;BME280;11972;48.078;11.876;2023-02-17T14:34:25;96097.91;;;12.10;100.00
23589;BME280;11972;48.078;11.876;2023-02-17T14:38:33;96107.69;;;12.24;100.00
23589;BME280;11972;48.078;11.876;2023-02-17T14:42:39;96096.63;;;12.44;100.00
23589;BME280;11972;48.078;11.876;2023-02-17T14:46:39;96108.78;;;12.53;100.00
23589;BME280;11972;48.078;11.876;2023-02-17T14:50:41;96092.44;;;12.64;100.00
23589;BME280;11972;48.078;11.876;2023-02-17T14:54:43;96081.28;;;12.83;100.00
23589;BME280;11972;48.078;11.876;2023-02-17T14:58:43;96087.16;;;12.94;100.00
23589;BME280;11972;48.078;11.876;2023-02-17T15:02:44;96090.00;;;12.92;100.00
23589;BME280;11972;48.078;11.876;2023-02-17T15:06:47;96088.44;;;12.68;100.00
23589;BME280;11972;48.078;11.876;2023-02-17T15:10:48;96098.28;;;12.22;100.00
23589;BME280;11972;48.078;11.876;2023-02-17T15:14:49;96079.66;;;12.30;100.00
23589;BME280;11972;48.078;11.876;2023-02-17T15:18:49;96099.44;;;12.42;100.00
23589;BME280;11972;48.078;11.876;2023-02-17T15:22:50;96093.41;;;12.48;100.00
23589;BME280;11972;48.078;11.876;2023-02-17T15:26:51;96086.22;;;12.57;100.00
23589;BME280;11972;48.078;11.876;2023-02-17T15:30:53;96091.78;;;12.62;100.00
23589;BME280;11972;48.078;11.876;2023-02-17T15:34:55;96092.44;;;12.64;100.00
23589;BME280;11972;48.078;11.876;2023-02-17T15:38:55;96079.81;;;12.66;100.00
23589;BME280;11972;48.078;11.876;2023-02-17T15:42:57;96078.53;;;12.62;100.00
23589;BME280;11972;48.078;11.876;2023-02-17T15:47:02;96078.28;;;11.96;100.00
23589;BME280;11972;48.078;11.876;2023-02-17T15:51:02;96076.06;;;11.23;100.00
23589;BME280;11972;48.078;11.876;2023-02-17T15:55:03;96071.59;;;10.84;100.00
23589;BME280;11972;48.078;11.876;2023-02-17T15:59:17;96074.09;;;10.69;100.00
23589;BME280;11972;48.078;11.876;2023-02-17T16:03:18;96075.72;;;10.86;100.00
23589;BME280;11972;48.078;11.876;2023-02-17T16:07:18;96070.03;;;11.06;100.00
23589;BME280;11972;48.078;11.876;2023-02-17T16:11:20;96075.94;;;11.16;100.00
23589;BME280;11972;48.078;11.876;2023-02-17T16:15:23;96067.53;;;11.12;100.00
23589;BME280;11972;48.078;11.876;2023-02-17T16:19:24;96073.13;;;11.17;100.00
23589;BME280;11972;48.078;11.876;2023-02-17T16:23:24;96076.53;;;11.26;100.00
23589;BME280;11972;48.078;11.876;2023-02-17T16:27:25;96066.59;;;11.36;100.00
23589;BME280;11972;48.078;11.876;2023-02-17T16:31:25;96066.53;;;11.45;100.00
23589;BME280;11972;48.078;11.876;2023-02-17T16:35:29;96068.31;;;11.52;100.00
23589;BME280;11972;48.078;11.876;2023-02-17T16:39:29;96075.06;;;11.55;100.00
23589;BME280;11972;48.078;11.876;2023-02-17T16:43:30;96066.84;;;11.50;100.00
23589;BME280;11972;48.078;11.876;2023-02-17T16:47:30;96070.81;;;11.46;100.00
23589;BME280;11972;48.078;11.876;2023-02-17T16:51:30;96070.72;;;11.31;100.00
23589;BME280;11972;48.078;11.876;2023-02-17T16:55:32;96072.28;;;11.17;100.00
23589;BME280;11972;48.078;11.876;2023-02-17T16:59:33;96080.28;;;11.01;100.00
23589;BME280;11972;48.078;11.876;2023-02-17T17:03:34;96062.00;;;10.91;100.00
23589;BME280;11972;48.078;11.876;2023-02-17T17:07:35;96083.66;;;10.86;100.00
23589;BME280;11972;48.078;11.876;2023-02-17T17:11:35;96083.84;;;10.77;100.00
23589;BME280;11972;48.078;11.876;2023-02-17T17:15:37;96093.59;;;10.68;100.00
23589;BME280;11972;48.078;11.876;2023-02-17T17:19:40;96089.63;;;10.72;100.00
23589;BME280;11972;48.078;11.876;2023-02-17T17:23:40;96103.16;;;10.77;100.00
23589;BME280;11972;48.078;11.876;2023-02-17T17:27:41;96080.53;;;10.83;100.00
23589;BME280;11972;48.078;11.876;2023-02-17T17:31:41;96089.59;;;10.88;100.00
23589;BME280;11972;48.078;11.876;2023-02-17T17:35:41;96100.19;;;10.80;100.00
23589;BME280;11972;48.078;11.876;2023-02-17T17:39:42;96100.53;;;10.69;100.00
23589;BME280;11972;48.078;11.876;2023-02-17T17:43:42;96100.22;;;10.64;100.00
23589;BME280;11972;48.078;11.876;2023-02-17T17:47:45;96104.50;;;10.65;100.00
23589;BME280;11972;48.078;11.876;2023-02-17T17:51:46;96110.16;;;10.62;100.00
23589;BME280;11972;48.078;11.876;2023-02-17T17:55:46;96121.38;;;10.48;100.00
23589;BME280;11972;48.078;11.876;2023-02-17T17:59:47;96115.94;;;10.41;100.00
23589;BME280;11972;48.078;11.876;2023-02-17T18:03:48;96105.53;;;10.31;100.00
23589;BME280;11972;48.078;11.876;2023-02-17T18:07:49;96107.69;;;10.28;100.00
23589;BME280;11972;48.078;11.876;2023-02-17T18:11:51;96107.38;;;10.31;100.00
23589;BME280;11972;48.078;11.876;2023-02-17T18:15:53;96098.13;;;10.35;100.00
23589;BME280;11972;48.078;11.876;2023-02-17T18:19:53;96100.75;;;10.27;100.00
23589;BME280;11972;48.078;11.876;2023-02-17T18:23:54;96080.63;;;10.26;100.00
23589;BME280;11972;48.078;11.876;2023-02-17T18:27:55;96079.47;;;10.28;100.00
23589;BME280;11972;48.078;11.876;2023-02-17T18:31:55;96089.19;;;10.28;100.00
23589;BME280;11972;48.078;11.876;2023-02-17T18:36:05;96094.66;;;10.26;100.00
23589;BME280;11972;48.078;11.876;2023-02-17T18:40:08;96093.66;;;10.35;100.00
23589;BME280;11972;48.078;11.876;2023-02-17T18:44:11;96098.44;;;10.32;100.00
23589;BME280;11972;48.078;11.876;2023-02-17T18:48:12;96096.47;;;10.34;100.00
23589;BME280;11972;48.078;11.876;2023-02-17T18:52:13;96082.09;;;10.28;100.00
23589;BME280;11972;48.078;11.876;2023-02-17T18:56:16;96081.13;;;10.37;100.00
23589;BME280;11972;48.078;11.876;2023-02-17T19:00:19;96076.66;;;10.38;100.00
23589;BME280;11972;48.078;11.876;2023-02-17T19:04:19;96080.78;;;10.32;100.00
23589;BME280;11972;48.078;11.876;2023-02-17T19:08:20;96075.03;;;10.29;100.00
23589;BME280;11972;48.078;11.876;2023-02-17T19:12:20;96071.91;;;10.25;100.00
23589;BME280;11972;48.078;11.876;2023-02-17T19:16:26;96089.06;;;10.29;100.00
23589;BME280;11972;48.078;11.876;2023-02-17T19:20:27;96070.06;;;10.34;100.00
23589;BME280;11972;48.078;11.876;2023-02-17T19:24:28;96072.53;;;10.35;100.00
23589;BME280;11972;48.078;11.876;2023-02-17T19:28:28;96072.53;;;10.35;100.00
23589;BME280;11972;48.078;11.876;2023-02-17T19:32:28;96079.47;;;10.36;100.00
23589;BME280;11972;48.078;11.876;2023-02-17T19:36:29;96073.53;;;10.34;100.00
23589;BME280;11972;48.078;11.876;2023-02-17T19:40:29;96089.84;;;10.46;100.00
23589;BME280;11972;48.078;11.876;2023-02-17T19:44:30;96080.13;;;10.47;100.00
23589;BME280;11972;48.078;11.876;2023-02-17T19:48:31;96074.66;;;10.48;100.00
23589;BME280;11972;48.078;11.876;2023-02-17T19:52:32;96075.66;;;10.47;100.00
23589;BME280;11972;48.078;11.876;2023-02-17T19:56:33;96089.66;;;10.56;100.00
23589;BME280;11972;48.078;11.876;2023-02-17T20:00:35;96088.00;;;10.71;100.00
23589;BME280;11972;48.078;11.876;2023-02-17T20:04:35;96090.63;;;10.79;100.00
23589;BME280;11972;48.078;11.876;2023-02-17T20:08:36;96099.19;;;10.81;100.00
23589;BME280;11972;48.078;11.876;2023-02-17T20:12:37;96104.63;;;10.88;100.00
23589;BME280;11972;48.078;11.876;2023-02-17T20:16:38;96094.25;;;10.78;100.00
23589;BME280;11972;48.078;11.876;2023-02-17T20:20:38;96096.91;;;10.70;100.00
23589;BME280;11972;48.078;11.876;2023-02-17T20:24:39;96093.13;;;10.64;100.00
23589;BME280;11972;48.078;11.876;2023-02-17T20:28:41;96100.53;;;10.61;100.00
23589;BME280;11972;48.078;11.876;2023-02-17T20:32:41;96101.22;;;10.63;100.00
23589;BME280;11972;48.078;11.876;2023-02-17T20:36:41;96111.09;;;10.69;100.00
23589;BME280;11972;48.078;11.876;2023-02-17T20:40:42;96127.31;;;10.66;100.00
23589;BME280;11972;48.078;11.876;2023-02-17T20:44:42;96136.69;;;10.68;100.00
23589;BME280;11972;48.078;11.876;2023-02-17T20:48:44;96141.47;;;10.73;100.00
23589;BME280;11972;48.078;11.876;2023-02-17T20:52:45;96159.63;;;10.84;100.00
23589;BME280;11972;48.078;11.876;2023-02-17T20:56:46;96151.31;;;11.12;100.00
23589;BME280;11972;48.078;11.876;2023-02-17T21:00:46;96152.59;;;11.24;100.00
23589;BME280;11972;48.078;11.876;2023-02-17T21:04:47;96161.94;;;11.35;100.00
23589;BME280;11972;48.078;11.876;2023-02-17T21:09:17;96177.25;;;11.56;100.00
23589;BME280;11972;48.078;11.876;2023-02-17T21:13:17;96173.25;;;11.60;100.00
23589;BME280;11972;48.078;11.876;2023-02-17T21:17:18;96162.00;;;11.66;100.00
23589;BME280;11972;48.078;11.876;2023-02-17T21:21:19;96166.00;;;11.62;100.00
23589;BME280;11972;48.078;11.876;2023-02-17T21:25:19;96156.41;;;11.61;100.00
23589;BME280;11972;48.078;11.876;2023-02-17T21:29:19;96167.03;;;11.53;100.00
23589;BME280;11972;48.078;11.876;2023-02-17T21:33:20;96167.97;;;11.60;100.00
23589;BME280;11972;48.078;11.876;2023-02-17T21:37:21;96163.63;;;11.67;100.00
23589;BME280;11972;48.078;11.876;2023-02-17T21:41:22;96195.06;;;11.70;100.00
23589;BME280;11972;48.078;11.876;2023-02-17T21:45:23;96182.00;;;11.68;100.00
23589;BME280;11972;48.078;11.876;2023-02-17T21:49:24;96192.06;;;11.73;100.00